| time (UTC) | temp F | wind direction | speed knots | gust knots | rain 1hr in | rain 24hr in | rain mn in | humidity % | barometer mb |
| 20260506112516 | 57 | 338 | 2.6 | 4.3 | 0.00 | 0.01 | 0.00 | 78 | 1013.0 |
| 20260506111516 | 57 | 0 | 4.3 | 13.0 | 0.00 | 0.01 | 0.00 | 78 | 1012.6 |
| 20260506110517 | 58 | 23 | 1.7 | 3.5 | 0.00 | 0.01 | 0.00 | 77 | 1012.5 |
| 20260506105516 | 58 | 338 | 1.7 | 3.5 | 0.00 | 0.01 | 0.00 | 77 | 1012.3 |
| 20260506104516 | 58 | 68 | 3.5 | 7.0 | 0.00 | 0.01 | 0.00 | 76 | 1012.0 |
| 20260506103516 | 58 | 338 | 4.3 | 7.0 | 0.00 | 0.01 | 0.00 | 77 | 1011.9 |
| 20260506102516 | 58 | 23 | 5.2 | 8.7 | 0.00 | 0.01 | 0.00 | 76 | 1011.7 |
| 20260506101516 | 59 | 23 | 5.2 | 12.2 | 0.00 | 0.01 | 0.00 | 76 | 1011.5 |
| 20260506100518 | 59 | 338 | 1.7 | 5.2 | 0.00 | 0.01 | 0.00 | 76 | 1011.4 |
| 20260506095516 | 59 | 293 | 3.5 | 8.7 | 0.00 | 0.01 | 0.00 | 77 | 1011.5 |
| 20260506094518 | 59 | 0 | 3.5 | 5.2 | 0.00 | 0.01 | 0.00 | 76 | 1011.2 |
| 20260506093538 | 59 | 23 | 4.3 | 6.1 | 0.00 | 0.01 | 0.00 | 76 | 1011.3 |
| 20260506092518 | 59 | 315 | 1.7 | 2.6 | 0.00 | 0.01 | 0.00 | 77 | 1011.2 |
| 20260506091538 | 59 | 0 | 2.6 | 5.2 | 0.00 | 0.01 | 0.00 | 76 | 1011.1 |
| 20260506090518 | 59 | 338 | 1.7 | 3.5 | 0.00 | 0.01 | 0.00 | 75 | 1011.0 |
| 20260506085518 | 59 | 23 | 0.9 | 1.7 | 0.00 | 0.01 | 0.00 | 75 | 1010.9 |
| 20260506084518 | 60 | 45 | 0.9 | 1.7 | 0.00 | 0.01 | 0.00 | 76 | 1010.8 |
| 20260506083518 | 59 | 23 | 3.5 | 4.3 | 0.00 | 0.01 | 0.00 | 76 | 1010.4 |
| 20260506082518 | 60 | 0 | 1.7 | 4.3 | 0.00 | 0.01 | 0.00 | 75 | 1010.4 |
| 20260506081518 | 60 | 0.0 | 0.0 | 0.00 | 0.01 | 0.00 | 76 | 1010.6 | |
| 20260506080518 | 60 | 23 | 1.7 | 3.5 | 0.00 | 0.01 | 0.00 | 76 | 1010.3 |
| 20260506073518 | 60 | 0 | 2.6 | 3.5 | 0.00 | 0.01 | 0.00 | 76 | 1010.7 |
| 20260506072518 | 60 | 0 | 1.7 | 4.3 | 0.00 | 0.01 | 0.00 | 76 | 1010.6 |
| 20260506071517 | 61 | 0 | 4.3 | 8.7 | 0.00 | 0.01 | 0.00 | 76 | 1010.7 |
| 20260506070558 | 62 | 0 | 6.1 | 11.3 | 0.00 | 0.01 | 0.00 | 77 | 1010.6 |
| 20260506061517 | 63 | 338 | 4.3 | 7.0 | 0.00 | 0.01 | 0.00 | 78 | 1010.4 |
| 20260506060517 | 63 | 68 | 3.5 | 6.1 | 0.00 | 0.01 | 0.00 | 78 | 1010.3 |
| 20260506050518 | 66 | 315 | 2.6 | 7.0 | 0.00 | 0.01 | 0.00 | 77 | 1010.1 |
| 20260506044518 | 67 | 0 | 3.5 | 6.1 | 0.00 | 0.01 | 0.01 | 77 | 1009.9 |
| 20260506043518 | 68 | 338 | 2.6 | 6.1 | 0.00 | 0.01 | 0.01 | 77 | 1009.7 |
| 20260506042517 | 69 | 338 | 3.5 | 6.1 | 0.00 | 0.01 | 0.01 | 77 | 1009.7 |
| 20260506041516 | 70 | 0 | 2.6 | 7.8 | 0.00 | 0.01 | 0.01 | 76 | 1009.3 |
| 20260506040517 | 70 | 0 | 4.3 | 8.7 | 0.00 | 0.01 | 0.01 | 76 | 1009.4 |
| 20260506035518 | 71 | 248 | 2.6 | 5.2 | 0.00 | 0.01 | 0.01 | 76 | 1009.5 |
| 20260506034537 | 71 | 338 | 1.7 | 2.6 | 0.00 | 0.01 | 0.01 | 76 | 1009.1 |
| 20260506033517 | 71 | 0 | 1.7 | 4.3 | 0.00 | 0.01 | 0.01 | 75 | 1009.1 |
| 20260506032518 | 72 | 0 | 1.7 | 4.3 | 0.00 | 0.01 | 0.01 | 76 | 1008.8 |
| 20260506031537 | 73 | 23 | 4.3 | 7.8 | 0.00 | 0.01 | 0.01 | 75 | 1009.0 |
| 20260506030517 | 74 | 338 | 5.2 | 9.6 | 0.00 | 0.01 | 0.01 | 75 | 1008.6 |
| 20260506025537 | 74 | 0 | 3.5 | 7.0 | 0.00 | 0.01 | 0.01 | 75 | 1008.2 |
| 20260506024557 | 75 | 338 | 2.6 | 3.5 | 0.00 | 0.01 | 0.01 | 74 | 1007.9 |
| 20260506023518 | 75 | 338 | 0.9 | 2.6 | 0.00 | 0.01 | 0.01 | 74 | 1007.4 |
| 20260506022517 | 75 | 0 | 1.7 | 2.6 | 0.00 | 0.01 | 0.01 | 75 | 1007.2 |
| 20260506021518 | 75 | 315 | 3.5 | 7.0 | 0.00 | 0.01 | 0.01 | 75 | 1007.2 |
| 20260506020517 | 75 | 0 | 3.5 | 5.2 | 0.00 | 0.01 | 0.01 | 76 | 1006.8 |
| 20260506015538 | 75 | 338 | 1.7 | 4.3 | 0.00 | 0.01 | 0.01 | 75 | 1006.9 |
| 20260506014517 | 75 | 0 | 3.5 | 7.8 | 0.01 | 0.01 | 0.01 | 75 | 1006.7 |
| 20260506013517 | 76 | 338 | 1.7 | 3.5 | 0.01 | 0.01 | 0.01 | 75 | 1006.7 |
| 20260506012517 | 78 | 248 | 1.7 | 2.6 | 0.01 | 0.01 | 0.01 | 82 | 1006.9 |
| 20260506011537 | 78 | 225 | 0.9 | 1.7 | 0.01 | 0.01 | 0.01 | 82 | 1006.2 |
| 20260506010517 | 78 | 135 | 0.9 | 0.9 | 0.01 | 0.01 | 0.01 | 83 | 1005.9 |
| 20260506005518 | 78 | 0.0 | 0.0 | 0.01 | 0.01 | 0.01 | 83 | 1006.3 | |
| 20260506004517 | 79 | 0.0 | 0.9 | 0.00 | 0.00 | 0.00 | 82 | 1006.3 | |
| 20260506003517 | 79 | 0.0 | 0.9 | 0.00 | 0.00 | 0.00 | 81 | 1006.2 | |
| 20260506002517 | 79 | 113 | 1.7 | 2.6 | 0.00 | 0.00 | 0.00 | 82 | 1005.9 |
| 20260506001538 | 81 | 113 | 1.7 | 1.7 | 0.00 | 0.00 | 0.00 | 76 | 1005.8 |
| 20260506000518 | 81 | 158 | 0.9 | 0.9 | 0.00 | 0.00 | 0.00 | 75 | 1005.4 |
| 20260505235517 | 82 | 180 | 0.9 | 1.7 | 0.00 | 0.00 | 0.00 | 73 | 1005.1 |
| 20260505234517 | 83 | 135 | 2.6 | 5.2 | 0.00 | 0.00 | 0.00 | 72 | 1005.4 |
| 20260505233537 | 83 | 203 | 1.7 | 3.5 | 0.00 | 0.00 | 0.00 | 71 | 1005.3 |
| 20260505232517 | 84 | 135 | 0.9 | 2.6 | 0.00 | 0.00 | 0.00 | 71 | 1005.2 |
| 20260505231518 | 85 | 90 | 0.9 | 2.6 | 0.00 | 0.00 | 0.00 | 69 | 1005.4 |
| 20260505230517 | 86 | 113 | 2.6 | 3.5 | 0.00 | 0.00 | 0.00 | 68 | 1005.2 |
| 20260505225517 | 85 | 248 | 1.7 | 3.5 | 0.00 | 0.00 | 0.00 | 69 | 1005.1 |
| 20260505224517 | 86 | 158 | 0.9 | 1.7 | 0.00 | 0.00 | 0.00 | 68 | 1005.0 |
| 20260505223517 | 86 | 158 | 1.7 | 2.6 | 0.00 | 0.00 | 0.00 | 67 | 1004.9 |
| 20260505222517 | 86 | 225 | 2.6 | 2.6 | 0.00 | 0.00 | 0.00 | 68 | 1005.0 |
| 20260505221537 | 86 | 180 | 1.7 | 4.3 | 0.00 | 0.00 | 0.00 | 67 | 1005.0 |
| 20260505220517 | 86 | 113 | 0.9 | 2.6 | 0.00 | 0.00 | 0.00 | 66 | 1004.9 |
| 20260505215517 | 87 | 180 | 1.7 | 2.6 | 0.00 | 0.00 | 0.00 | 68 | 1004.9 |
| 20260505214537 | 86 | 203 | 2.6 | 5.2 | 0.00 | 0.00 | 0.00 | 67 | 1005.1 |
| 20260505213517 | 86 | 225 | 2.6 | 6.1 | 0.00 | 0.00 | 0.00 | 67 | 1005.1 |
| 20260505212517 | 86 | 180 | 1.7 | 4.3 | 0.00 | 0.00 | 0.00 | 67 | 1005.2 |
| 20260505211517 | 86 | 203 | 2.6 | 6.1 | 0.00 | 0.00 | 0.00 | 66 | 1005.2 |
| 20260505210517 | 86 | 248 | 0.9 | 2.6 | 0.00 | 0.00 | 0.00 | 67 | 1005.3 |
| 20260505205517 | 86 | 225 | 3.5 | 7.8 | 0.00 | 0.00 | 0.00 | 66 | 1005.5 |
| 20260505204517 | 85 | 203 | 1.7 | 3.5 | 0.00 | 0.00 | 0.00 | 66 | 1005.6 |
| 20260505203517 | 86 | 135 | 1.7 | 3.5 | 0.00 | 0.00 | 0.00 | 66 | 1005.7 |
| 20260505202517 | 85 | 135 | 3.5 | 7.0 | 0.00 | 0.00 | 0.00 | 66 | 1005.8 |
| 20260505201517 | 85 | 203 | 3.5 | 7.8 | 0.00 | 0.00 | 0.00 | 69 | 1005.9 |
| 20260505200517 | 85 | 225 | 3.5 | 8.7 | 0.00 | 0.00 | 0.00 | 68 | 1005.9 |
| 20260505195537 | 84 | 203 | 1.7 | 4.3 | 0.00 | 0.00 | 0.00 | 68 | 1005.9 |
| 20260505194517 | 84 | 135 | 3.5 | 6.1 | 0.00 | 0.00 | 0.00 | 70 | 1006.0 |
| 20260505193517 | 83 | 180 | 2.6 | 4.3 | 0.00 | 0.00 | 0.00 | 71 | 1005.9 |
| 20260505192517 | 83 | 225 | 3.5 | 9.6 | 0.00 | 0.00 | 0.00 | 70 | 1006.0 |
| 20260505191517 | 82 | 158 | 1.7 | 3.5 | 0.00 | 0.00 | 0.00 | 72 | 1006.0 |
| 20260505190517 | 82 | 203 | 6.1 | 10.4 | 0.00 | 0.00 | 0.00 | 71 | 1006.2 |
| 20260505185517 | 81 | 203 | 2.6 | 5.2 | 0.00 | 0.00 | 0.00 | 73 | 1006.3 |
| 20260505184517 | 81 | 180 | 2.6 | 5.2 | 0.00 | 0.00 | 0.00 | 73 | 1006.3 |
| 20260505183516 | 81 | 158 | 1.7 | 2.6 | 0.00 | 0.00 | 0.00 | 74 | 1006.3 |
| 20260505182517 | 81 | 225 | 1.7 | 3.5 | 0.00 | 0.00 | 0.00 | 73 | 1006.4 |
| 20260505181518 | 80 | 225 | 1.7 | 2.6 | 0.00 | 0.00 | 0.00 | 74 | 1006.5 |
| 20260505180517 | 80 | 248 | 3.5 | 5.2 | 0.00 | 0.00 | 0.00 | 74 | 1006.6 |
| 20260505175517 | 81 | 203 | 3.5 | 7.0 | 0.00 | 0.00 | 0.00 | 73 | 1006.5 |
| 20260505174517 | 81 | 180 | 3.5 | 6.1 | 0.00 | 0.00 | 0.00 | 72 | 1006.7 |
| 20260505173517 | 80 | 180 | 3.5 | 7.0 | 0.00 | 0.00 | 0.00 | 73 | 1006.5 |
| 20260505172537 | 80 | 180 | 1.7 | 2.6 | 0.00 | 0.00 | 0.00 | 75 | 1006.5 |
| 20260505171517 | 80 | 203 | 1.7 | 3.5 | 0.00 | 0.00 | 0.00 | 74 | 1006.7 |
| 20260505170517 | 79 | 248 | 1.7 | 3.5 | 0.00 | 0.00 | 0.00 | 76 | 1006.8 |
| 20260505165517 | 79 | 180 | 5.2 | 9.6 | 0.00 | 0.00 | 0.00 | 74 | 1006.7 |
| 20260505164516 | 78 | 180 | 2.6 | 4.3 | 0.00 | 0.00 | 0.00 | 75 | 1006.7 |
| 20260505163517 | 79 | 225 | 3.5 | 5.2 | 0.00 | 0.00 | 0.00 | 76 | 1006.5 |
| 20260505162517 | 78 | 225 | 6.1 | 12.2 | 0.00 | 0.00 | 0.00 | 75 | 1006.4 |
| 20260505161517 | 78 | 135 | 3.5 | 5.2 | 0.00 | 0.00 | 0.00 | 76 | 1006.4 |
| 20260505160517 | 77 | 180 | 2.6 | 4.3 | 0.00 | 0.00 | 0.00 | 79 | 1006.3 |
| 20260505152537 | 75 | 203 | 3.5 | 6.1 | 0.00 | 0.00 | 0.00 | 80 | 1006.5 |
| 20260505151516 | 75 | 203 | 1.7 | 2.6 | 0.00 | 0.00 | 0.00 | 81 | 1006.7 |
| 20260505150516 | 75 | 180 | 3.5 | 6.1 | 0.00 | 0.00 | 0.00 | 81 | 1006.6 |
| 20260505140517 | 73 | 180 | 1.7 | 2.6 | 0.00 | 0.00 | 0.00 | 83 | 1006.4 |
| 20260505124516 | 72 | 203 | 1.7 | 2.6 | 0.00 | 0.00 | 0.00 | 84 | 1006.0 |
| 20260505123516 | 72 | 203 | 3.5 | 7.8 | 0.00 | 0.00 | 0.00 | 84 | 1005.9 |
| 20260505122516 | 72 | 180 | 1.7 | 3.5 | 0.00 | 0.00 | 0.00 | 84 | 1005.8 |
| 20260505121516 | 71 | 180 | 2.6 | 6.1 | 0.00 | 0.00 | 0.00 | 84 | 1005.9 |
| 20260505120517 | 71 | 270 | 2.6 | 4.3 | 0.00 | 0.00 | 0.00 | 84 | 1005.7 |
| 20260505115516 | 71 | 203 | 1.7 | 3.5 | 0.00 | 0.00 | 0.00 | 85 | 1005.7 |
| 20260505114536 | 71 | 180 | 3.5 | 7.0 | 0.00 | 0.00 | 0.00 | 85 | 1005.6 |
| 20260505113536 | 71 | 158 | 1.7 | 2.6 | 0.00 | 0.00 | 0.00 | 84 | 1005.5 |